sensor_id;sensor_type;location;lat;lon;timestamp;P1;durP1;ratioP1;P2;durP2;ratioP2
14078;SDS011;7115;50.150;8.568;2022-07-29T02:01:47;6.60;;;1.80;;
14078;SDS011;7115;50.150;8.568;2022-07-29T02:04:20;6.03;;;1.70;;
14078;SDS011;7115;50.150;8.568;2022-07-29T02:07:00;3.27;;;1.80;;
14078;SDS011;7115;50.150;8.568;2022-07-29T02:09:30;7.70;;;1.50;;
14078;SDS011;7115;50.150;8.568;2022-07-29T02:11:59;8.50;;;2.37;;
14078;SDS011;7115;50.150;8.568;2022-07-29T02:14:31;4.37;;;1.50;;
14078;SDS011;7115;50.150;8.568;2022-07-29T02:17:03;2.67;;;1.50;;
14078;SDS011;7115;50.150;8.568;2022-07-29T02:19:30;6.03;;;1.90;;
14078;SDS011;7115;50.150;8.568;2022-07-29T02:21:59;1.80;;;1.50;;
14078;SDS011;7115;50.150;8.568;2022-07-29T02:24:27;6.03;;;1.60;;
14078;SDS011;7115;50.150;8.568;2022-07-29T02:26:55;3.00;;;1.60;;
14078;SDS011;7115;50.150;8.568;2022-07-29T02:29:25;5.00;;;1.57;;
14078;SDS011;7115;50.150;8.568;2022-07-29T02:31:54;2.57;;;1.50;;
14078;SDS011;7115;50.150;8.568;2022-07-29T02:34:23;8.57;;;2.10;;
14078;SDS011;7115;50.150;8.568;2022-07-29T02:36:50;1.87;;;1.30;;
14078;SDS011;7115;50.150;8.568;2022-07-29T02:39:20;3.50;;;1.47;;
14078;SDS011;7115;50.150;8.568;2022-07-29T03:06:21;4.40;;;1.70;;
14078;SDS011;7115;50.150;8.568;2022-07-29T03:12:51;4.43;;;1.90;;
14078;SDS011;7115;50.150;8.568;2022-07-29T03:15:20;3.80;;;1.93;;
14078;SDS011;7115;50.150;8.568;2022-07-29T03:17:50;4.63;;;2.10;;
14078;SDS011;7115;50.150;8.568;2022-07-29T03:20:18;2.93;;;1.80;;
14078;SDS011;7115;50.150;8.568;2022-07-29T03:22:45;5.17;;;2.37;;
14078;SDS011;7115;50.150;8.568;2022-07-29T03:25:16;4.40;;;2.33;;
14078;SDS011;7115;50.150;8.568;2022-07-29T03:27:46;4.47;;;1.73;;
14078;SDS011;7115;50.150;8.568;2022-07-29T03:30:14;4.00;;;1.80;;
14078;SDS011;7115;50.150;8.568;2022-07-29T03:32:47;2.67;;;1.90;;
14078;SDS011;7115;50.150;8.568;2022-07-29T03:35:14;4.10;;;1.77;;
14078;SDS011;7115;50.150;8.568;2022-07-29T03:37:43;3.53;;;1.97;;
14078;SDS011;7115;50.150;8.568;2022-07-29T03:40:11;2.57;;;1.73;;
14078;SDS011;7115;50.150;8.568;2022-07-29T03:42:44;4.07;;;1.83;;
14078;SDS011;7115;50.150;8.568;2022-07-29T03:45:12;3.73;;;2.00;;
14078;SDS011;7115;50.150;8.568;2022-07-29T03:47:45;3.77;;;2.10;;
14078;SDS011;7115;50.150;8.568;2022-07-29T03:50:22;3.27;;;2.43;;
14078;SDS011;7115;50.150;8.568;2022-07-29T03:52:49;3.97;;;1.97;;
14078;SDS011;7115;50.150;8.568;2022-07-29T03:55:16;2.70;;;1.73;;
14078;SDS011;7115;50.150;8.568;2022-07-29T03:57:43;5.70;;;1.83;;
14078;SDS011;7115;50.150;8.568;2022-07-29T04:00:10;8.47;;;2.27;;
14078;SDS011;7115;50.150;8.568;2022-07-29T04:02:38;2.73;;;2.10;;
14078;SDS011;7115;50.150;8.568;2022-07-29T04:05:10;5.57;;;2.00;;
14078;SDS011;7115;50.150;8.568;2022-07-29T04:07:38;8.57;;;2.33;;
14078;SDS011;7115;50.150;8.568;2022-07-29T04:10:06;6.03;;;2.17;;
14078;SDS011;7115;50.150;8.568;2022-07-29T04:12:33;3.27;;;2.00;;
14078;SDS011;7115;50.150;8.568;2022-07-29T04:15:02;5.07;;;2.00;;
14078;SDS011;7115;50.150;8.568;2022-07-29T04:17:29;2.47;;;1.87;;
14078;SDS011;7115;50.150;8.568;2022-07-29T04:19:56;4.57;;;2.30;;
14078;SDS011;7115;50.150;8.568;2022-07-29T04:22:23;2.83;;;1.70;;
14078;SDS011;7115;50.150;8.568;2022-07-29T04:24:50;9.30;;;2.30;;
14078;SDS011;7115;50.150;8.568;2022-07-29T04:27:17;4.47;;;2.00;;
14078;SDS011;7115;50.150;8.568;2022-07-29T04:29:46;3.77;;;2.00;;
14078;SDS011;7115;50.150;8.568;2022-07-29T04:32:22;4.77;;;1.80;;
14078;SDS011;7115;50.150;8.568;2022-07-29T04:34:49;7.03;;;1.80;;
14078;SDS011;7115;50.150;8.568;2022-07-29T04:37:16;7.23;;;1.93;;
14078;SDS011;7115;50.150;8.568;2022-07-29T04:39:42;5.73;;;1.97;;
14078;SDS011;7115;50.150;8.568;2022-07-29T04:42:09;12.07;;;2.40;;
14078;SDS011;7115;50.150;8.568;2022-07-29T04:44:36;9.30;;;3.10;;
14078;SDS011;7115;50.150;8.568;2022-07-29T04:47:07;14.83;;;2.57;;
14078;SDS011;7115;50.150;8.568;2022-07-29T04:49:37;8.23;;;2.37;;
14078;SDS011;7115;50.150;8.568;2022-07-29T04:52:04;9.87;;;2.43;;
14078;SDS011;7115;50.150;8.568;2022-07-29T04:54:31;10.43;;;3.23;;
14078;SDS011;7115;50.150;8.568;2022-07-29T04:56:59;5.70;;;2.23;;
14078;SDS011;7115;50.150;8.568;2022-07-29T04:59:25;2.90;;;2.30;;
14078;SDS011;7115;50.150;8.568;2022-07-29T05:01:53;5.43;;;2.40;;
14078;SDS011;7115;50.150;8.568;2022-07-29T05:04:19;4.63;;;2.53;;
14078;SDS011;7115;50.150;8.568;2022-07-29T05:06:46;5.47;;;2.60;;
14078;SDS011;7115;50.150;8.568;2022-07-29T05:09:14;6.63;;;2.73;;
14078;SDS011;7115;50.150;8.568;2022-07-29T05:11:40;5.07;;;2.10;;
14078;SDS011;7115;50.150;8.568;2022-07-29T05:14:07;7.83;;;2.67;;
14078;SDS011;7115;50.150;8.568;2022-07-29T05:16:34;5.60;;;2.83;;
14078;SDS011;7115;50.150;8.568;2022-07-29T05:19:01;7.33;;;2.47;;
14078;SDS011;7115;50.150;8.568;2022-07-29T05:21:27;3.43;;;1.80;;
14078;SDS011;7115;50.150;8.568;2022-07-29T05:23:54;3.63;;;2.13;;
14078;SDS011;7115;50.150;8.568;2022-07-29T05:26:21;3.20;;;2.10;;
14078;SDS011;7115;50.150;8.568;2022-07-29T05:28:48;3.73;;;2.00;;
14078;SDS011;7115;50.150;8.568;2022-07-29T05:31:15;5.97;;;2.07;;
14078;SDS011;7115;50.150;8.568;2022-07-29T05:33:42;3.53;;;2.13;;
14078;SDS011;7115;50.150;8.568;2022-07-29T05:36:08;9.70;;;2.13;;
14078;SDS011;7115;50.150;8.568;2022-07-29T05:38:35;4.47;;;1.93;;
14078;SDS011;7115;50.150;8.568;2022-07-29T05:41:03;4.50;;;2.37;;
14078;SDS011;7115;50.150;8.568;2022-07-29T05:43:31;4.20;;;2.37;;
14078;SDS011;7115;50.150;8.568;2022-07-29T05:45:58;3.37;;;2.50;;
14078;SDS011;7115;50.150;8.568;2022-07-29T05:48:25;4.47;;;2.40;;
14078;SDS011;7115;50.150;8.568;2022-07-29T05:50:52;3.67;;;2.10;;
14078;SDS011;7115;50.150;8.568;2022-07-29T05:53:19;5.27;;;1.70;;
14078;SDS011;7115;50.150;8.568;2022-07-29T05:55:47;3.10;;;1.80;;
14078;SDS011;7115;50.150;8.568;2022-07-29T05:58:14;4.63;;;2.17;;
14078;SDS011;7115;50.150;8.568;2022-07-29T06:00:41;2.87;;;1.60;;
14078;SDS011;7115;50.150;8.568;2022-07-29T06:03:08;4.37;;;2.10;;
14078;SDS011;7115;50.150;8.568;2022-07-29T06:05:34;6.93;;;2.40;;
14078;SDS011;7115;50.150;8.568;2022-07-29T06:08:01;7.07;;;2.30;;
14078;SDS011;7115;50.150;8.568;2022-07-29T06:10:28;2.90;;;1.60;;
14078;SDS011;7115;50.150;8.568;2022-07-29T06:12:55;4.70;;;2.00;;
14078;SDS011;7115;50.150;8.568;2022-07-29T06:15:22;5.10;;;1.77;;
14078;SDS011;7115;50.150;8.568;2022-07-29T06:17:49;6.97;;;2.70;;
14078;SDS011;7115;50.150;8.568;2022-07-29T06:20:29;6.83;;;1.70;;
14078;SDS011;7115;50.150;8.568;2022-07-29T06:22:58;5.37;;;2.30;;
14078;SDS011;7115;50.150;8.568;2022-07-29T06:25:25;5.03;;;1.93;;
14078;SDS011;7115;50.150;8.568;2022-07-29T06:27:55;4.27;;;1.90;;
14078;SDS011;7115;50.150;8.568;2022-07-29T06:30:22;5.00;;;1.80;;
14078;SDS011;7115;50.150;8.568;2022-07-29T06:32:49;3.73;;;2.10;;
14078;SDS011;7115;50.150;8.568;2022-07-29T06:35:16;7.23;;;2.00;;
14078;SDS011;7115;50.150;8.568;2022-07-29T06:38:03;4.23;;;2.77;;
14078;SDS011;7115;50.150;8.568;2022-07-29T06:40:49;4.97;;;2.03;;
14078;SDS011;7115;50.150;8.568;2022-07-29T06:43:36;6.60;;;2.13;;
14078;SDS011;7115;50.150;8.568;2022-07-29T06:46:17;4.33;;;1.97;;
14078;SDS011;7115;50.150;8.568;2022-07-29T06:48:45;4.87;;;2.00;;
14078;SDS011;7115;50.150;8.568;2022-07-29T06:51:13;3.90;;;2.07;;
14078;SDS011;7115;50.150;8.568;2022-07-29T06:53:41;6.57;;;1.97;;
14078;SDS011;7115;50.150;8.568;2022-07-29T06:56:28;3.40;;;1.80;;
14078;SDS011;7115;50.150;8.568;2022-07-29T06:59:05;3.53;;;1.90;;
14078;SDS011;7115;50.150;8.568;2022-07-29T07:01:34;7.30;;;2.30;;
14078;SDS011;7115;50.150;8.568;2022-07-29T07:04:04;5.63;;;1.97;;
14078;SDS011;7115;50.150;8.568;2022-07-29T07:06:32;4.27;;;1.67;;
14078;SDS011;7115;50.150;8.568;2022-07-29T07:12:18;3.13;;;1.83;;
14078;SDS011;7115;50.150;8.568;2022-07-29T07:18:27;2.67;;;1.60;;
14078;SDS011;7115;50.150;8.568;2022-07-29T07:27:05;6.77;;;2.30;;
14078;SDS011;7115;50.150;8.568;2022-07-29T07:29:31;3.23;;;1.73;;
14078;SDS011;7115;50.150;8.568;2022-07-29T07:31:58;9.20;;;2.50;;
14078;SDS011;7115;50.150;8.568;2022-07-29T07:34:26;3.27;;;1.70;;
14078;SDS011;7115;50.150;8.568;2022-07-29T07:36:55;5.67;;;2.70;;
14078;SDS011;7115;50.150;8.568;2022-07-29T07:39:21;4.53;;;2.10;;
14078;SDS011;7115;50.150;8.568;2022-07-29T07:41:48;8.20;;;2.60;;
14078;SDS011;7115;50.150;8.568;2022-07-29T07:44:15;7.27;;;2.40;;
14078;SDS011;7115;50.150;8.568;2022-07-29T07:46:42;5.07;;;1.70;;
14078;SDS011;7115;50.150;8.568;2022-07-29T07:49:11;4.70;;;2.07;;
14078;SDS011;7115;50.150;8.568;2022-07-29T07:51:37;4.03;;;2.10;;
14078;SDS011;7115;50.150;8.568;2022-07-29T07:54:04;4.77;;;2.07;;
14078;SDS011;7115;50.150;8.568;2022-07-29T07:56:32;6.13;;;2.30;;
14078;SDS011;7115;50.150;8.568;2022-07-29T07:59:00;9.53;;;1.87;;
14078;SDS011;7115;50.150;8.568;2022-07-29T08:01:27;5.93;;;1.70;;
14078;SDS011;7115;50.150;8.568;2022-07-29T08:04:12;4.23;;;1.80;;
14078;SDS011;7115;50.150;8.568;2022-07-29T08:06:40;4.17;;;1.87;;
14078;SDS011;7115;50.150;8.568;2022-07-29T08:09:06;4.13;;;1.73;;
14078;SDS011;7115;50.150;8.568;2022-07-29T08:11:53;4.43;;;1.63;;
14078;SDS011;7115;50.150;8.568;2022-07-29T08:14:22;4.90;;;2.07;;
14078;SDS011;7115;50.150;8.568;2022-07-29T08:16:49;3.73;;;1.70;;
14078;SDS011;7115;50.150;8.568;2022-07-29T08:19:17;3.17;;;1.73;;
14078;SDS011;7115;50.150;8.568;2022-07-29T08:21:44;3.40;;;1.60;;
14078;SDS011;7115;50.150;8.568;2022-07-29T08:24:11;5.23;;;1.57;;
14078;SDS011;7115;50.150;8.568;2022-07-29T08:26:57;5.20;;;1.77;;
14078;SDS011;7115;50.150;8.568;2022-07-29T08:29:26;4.27;;;1.80;;
14078;SDS011;7115;50.150;8.568;2022-07-29T08:31:53;5.00;;;1.80;;
14078;SDS011;7115;50.150;8.568;2022-07-29T08:34:20;3.97;;;2.03;;
14078;SDS011;7115;50.150;8.568;2022-07-29T08:36:53;2.57;;;1.80;;
14078;SDS011;7115;50.150;8.568;2022-07-29T08:39:20;2.00;;;1.40;;
14078;SDS011;7115;50.150;8.568;2022-07-29T08:41:47;2.97;;;1.87;;
14078;SDS011;7115;50.150;8.568;2022-07-29T08:44:22;6.67;;;1.87;;
14078;SDS011;7115;50.150;8.568;2022-07-29T08:46:56;3.00;;;1.70;;
14078;SDS011;7115;50.150;8.568;2022-07-29T08:49:22;5.30;;;1.60;;
14078;SDS011;7115;50.150;8.568;2022-07-29T08:51:50;3.80;;;2.00;;
14078;SDS011;7115;50.150;8.568;2022-07-29T08:54:20;8.47;;;2.00;;
14078;SDS011;7115;50.150;8.568;2022-07-29T08:56:51;5.33;;;2.43;;
14078;SDS011;7115;50.150;8.568;2022-07-29T08:59:20;18.00;;;7.30;;
14078;SDS011;7115;50.150;8.568;2022-07-29T17:30:42;3.37;;;2.80;;
14078;SDS011;7115;50.150;8.568;2022-07-29T18:47:16;4.97;;;3.63;;
14078;SDS011;7115;50.150;8.568;2022-07-29T19:15:43;5.93;;;3.53;;
14078;SDS011;7115;50.150;8.568;2022-07-29T19:29:14;5.70;;;4.23;;
14078;SDS011;7115;50.150;8.568;2022-07-29T19:31:42;7.83;;;4.00;;
14078;SDS011;7115;50.150;8.568;2022-07-29T19:34:09;7.20;;;4.00;;
14078;SDS011;7115;50.150;8.568;2022-07-29T19:36:36;6.37;;;3.77;;
14078;SDS011;7115;50.150;8.568;2022-07-29T19:39:03;3.93;;;3.50;;
14078;SDS011;7115;50.150;8.568;2022-07-29T19:41:30;7.40;;;3.87;;
14078;SDS011;7115;50.150;8.568;2022-07-29T19:43:57;4.40;;;3.43;;
14078;SDS011;7115;50.150;8.568;2022-07-29T19:46:24;4.70;;;3.50;;
14078;SDS011;7115;50.150;8.568;2022-07-29T19:48:54;4.87;;;4.23;;
14078;SDS011;7115;50.150;8.568;2022-07-29T19:51:21;8.10;;;3.83;;
14078;SDS011;7115;50.150;8.568;2022-07-29T19:53:49;4.37;;;3.37;;
14078;SDS011;7115;50.150;8.568;2022-07-29T19:56:16;4.30;;;3.60;;
14078;SDS011;7115;50.150;8.568;2022-07-29T19:58:42;6.07;;;4.20;;
14078;SDS011;7115;50.150;8.568;2022-07-29T20:01:10;5.50;;;3.80;;
14078;SDS011;7115;50.150;8.568;2022-07-29T20:03:37;6.37;;;3.80;;
14078;SDS011;7115;50.150;8.568;2022-07-29T20:06:06;4.80;;;4.20;;
14078;SDS011;7115;50.150;8.568;2022-07-29T20:08:33;7.27;;;4.40;;
14078;SDS011;7115;50.150;8.568;2022-07-29T20:11:00;4.63;;;3.60;;
14078;SDS011;7115;50.150;8.568;2022-07-29T20:13:27;5.73;;;4.23;;
14078;SDS011;7115;50.150;8.568;2022-07-29T20:15:56;4.87;;;3.70;;
14078;SDS011;7115;50.150;8.568;2022-07-29T20:18:23;5.97;;;3.50;;
14078;SDS011;7115;50.150;8.568;2022-07-29T20:20:51;4.83;;;3.73;;
14078;SDS011;7115;50.150;8.568;2022-07-29T20:23:19;4.80;;;4.30;;
14078;SDS011;7115;50.150;8.568;2022-07-29T20:25:47;5.50;;;3.93;;
14078;SDS011;7115;50.150;8.568;2022-07-29T20:28:14;5.20;;;4.33;;
14078;SDS011;7115;50.150;8.568;2022-07-29T20:30:44;4.40;;;4.00;;
14078;SDS011;7115;50.150;8.568;2022-07-29T20:33:12;5.30;;;4.13;;
14078;SDS011;7115;50.150;8.568;2022-07-29T20:35:39;5.03;;;3.97;;
14078;SDS011;7115;50.150;8.568;2022-07-29T20:38:06;6.23;;;4.33;;
14078;SDS011;7115;50.150;8.568;2022-07-29T20:40:32;5.23;;;3.93;;
14078;SDS011;7115;50.150;8.568;2022-07-29T20:43:00;5.17;;;3.80;;
14078;SDS011;7115;50.150;8.568;2022-07-29T20:45:27;4.97;;;4.47;;
14078;SDS011;7115;50.150;8.568;2022-07-29T20:47:54;5.00;;;4.40;;
14078;SDS011;7115;50.150;8.568;2022-07-29T20:50:21;4.87;;;4.37;;
14078;SDS011;7115;50.150;8.568;2022-07-29T20:52:52;6.03;;;4.00;;
14078;SDS011;7115;50.150;8.568;2022-07-29T20:55:19;4.43;;;4.03;;
14078;SDS011;7115;50.150;8.568;2022-07-29T20:57:46;4.20;;;3.80;;
14078;SDS011;7115;50.150;8.568;2022-07-29T21:00:13;4.70;;;4.17;;
14078;SDS011;7115;50.150;8.568;2022-07-29T21:02:40;6.15;;;4.18;;
14078;SDS011;7115;50.150;8.568;2022-07-29T21:05:07;4.60;;;3.77;;
14078;SDS011;7115;50.150;8.568;2022-07-29T21:07:34;7.93;;;3.97;;
14078;SDS011;7115;50.150;8.568;2022-07-29T21:10:01;6.90;;;4.47;;
14078;SDS011;7115;50.150;8.568;2022-07-29T21:12:28;4.63;;;4.23;;
14078;SDS011;7115;50.150;8.568;2022-07-29T21:14:58;7.13;;;4.80;;
14078;SDS011;7115;50.150;8.568;2022-07-29T21:17:25;5.13;;;4.10;;
14078;SDS011;7115;50.150;8.568;2022-07-29T21:19:51;4.70;;;4.17;;
14078;SDS011;7115;50.150;8.568;2022-07-29T21:22:20;5.10;;;4.10;;
14078;SDS011;7115;50.150;8.568;2022-07-29T21:24:47;4.33;;;3.93;;
14078;SDS011;7115;50.150;8.568;2022-07-29T21:27:14;4.53;;;3.80;;
14078;SDS011;7115;50.150;8.568;2022-07-29T21:30:03;5.23;;;4.10;;
14078;SDS011;7115;50.150;8.568;2022-07-29T21:32:32;4.30;;;3.90;;
14078;SDS011;7115;50.150;8.568;2022-07-29T21:34:59;7.10;;;4.40;;
14078;SDS011;7115;50.150;8.568;2022-07-29T21:37:25;5.70;;;4.20;;
14078;SDS011;7115;50.150;8.568;2022-07-29T21:39:53;7.30;;;4.63;;
14078;SDS011;7115;50.150;8.568;2022-07-29T21:42:20;8.27;;;4.90;;
14078;SDS011;7115;50.150;8.568;2022-07-29T21:44:47;4.30;;;3.90;;
14078;SDS011;7115;50.150;8.568;2022-07-29T21:47:14;4.70;;;3.93;;
14078;SDS011;7115;50.150;8.568;2022-07-29T21:49:41;5.37;;;3.97;;
14078;SDS011;7115;50.150;8.568;2022-07-29T21:52:07;8.53;;;6.20;;
14078;SDS011;7115;50.150;8.568;2022-07-29T21:54:34;5.73;;;4.23;;
14078;SDS011;7115;50.150;8.568;2022-07-29T21:57:04;4.63;;;4.20;;
14078;SDS011;7115;50.150;8.568;2022-07-29T21:59:32;5.10;;;4.60;;
14078;SDS011;7115;50.150;8.568;2022-07-29T22:01:58;7.03;;;5.23;;
14078;SDS011;7115;50.150;8.568;2022-07-29T22:04:29;6.37;;;4.67;;
14078;SDS011;7115;50.150;8.568;2022-07-29T22:06:56;5.80;;;4.87;;
14078;SDS011;7115;50.150;8.568;2022-07-29T22:09:24;6.67;;;4.83;;
14078;SDS011;7115;50.150;8.568;2022-07-29T22:11:51;7.77;;;5.03;;
14078;SDS011;7115;50.150;8.568;2022-07-29T22:14:17;8.33;;;6.83;;
14078;SDS011;7115;50.150;8.568;2022-07-29T22:16:44;5.70;;;4.50;;
14078;SDS011;7115;50.150;8.568;2022-07-29T22:19:12;7.70;;;3.97;;
14078;SDS011;7115;50.150;8.568;2022-07-29T22:21:40;5.03;;;4.37;;
14078;SDS011;7115;50.150;8.568;2022-07-29T22:24:07;5.27;;;4.03;;
14078;SDS011;7115;50.150;8.568;2022-07-29T22:26:35;6.23;;;4.13;;
14078;SDS011;7115;50.150;8.568;2022-07-29T22:29:03;5.53;;;4.07;;
14078;SDS011;7115;50.150;8.568;2022-07-29T22:31:30;6.60;;;4.30;;
14078;SDS011;7115;50.150;8.568;2022-07-29T22:33:56;5.63;;;4.50;;
14078;SDS011;7115;50.150;8.568;2022-07-29T22:36:23;4.83;;;4.33;;
14078;SDS011;7115;50.150;8.568;2022-07-29T22:38:50;5.37;;;4.20;;
14078;SDS011;7115;50.150;8.568;2022-07-29T22:41:17;7.40;;;4.63;;
14078;SDS011;7115;50.150;8.568;2022-07-29T22:43:44;5.77;;;4.97;;
14078;SDS011;7115;50.150;8.568;2022-07-29T22:46:10;5.23;;;4.70;;
14078;SDS011;7115;50.150;8.568;2022-07-29T22:48:37;6.23;;;4.83;;
14078;SDS011;7115;50.150;8.568;2022-07-29T22:51:04;7.07;;;4.60;;
14078;SDS011;7115;50.150;8.568;2022-07-29T22:53:31;7.10;;;4.80;;
14078;SDS011;7115;50.150;8.568;2022-07-29T22:55:57;4.90;;;4.27;;
14078;SDS011;7115;50.150;8.568;2022-07-29T22:58:24;8.27;;;4.93;;
14078;SDS011;7115;50.150;8.568;2022-07-29T23:00:51;8.57;;;6.13;;
14078;SDS011;7115;50.150;8.568;2022-07-29T23:03:18;7.73;;;4.90;;
14078;SDS011;7115;50.150;8.568;2022-07-29T23:05:45;6.53;;;5.10;;
14078;SDS011;7115;50.150;8.568;2022-07-29T23:08:12;5.33;;;4.73;;
14078;SDS011;7115;50.150;8.568;2022-07-29T23:10:39;5.30;;;4.10;;
14078;SDS011;7115;50.150;8.568;2022-07-29T23:13:06;4.73;;;4.23;;
14078;SDS011;7115;50.150;8.568;2022-07-29T23:15:32;5.30;;;4.60;;
14078;SDS011;7115;50.150;8.568;2022-07-29T23:17:59;6.53;;;4.73;;
14078;SDS011;7115;50.150;8.568;2022-07-29T23:20:26;5.50;;;5.00;;
14078;SDS011;7115;50.150;8.568;2022-07-29T23:22:53;14.60;;;5.67;;
14078;SDS011;7115;50.150;8.568;2022-07-29T23:25:19;5.37;;;4.40;;
14078;SDS011;7115;50.150;8.568;2022-07-29T23:27:46;5.43;;;4.50;;
14078;SDS011;7115;50.150;8.568;2022-07-29T23:30:13;5.37;;;4.33;;
14078;SDS011;7115;50.150;8.568;2022-07-29T23:32:40;4.80;;;4.30;;
14078;SDS011;7115;50.150;8.568;2022-07-29T23:35:07;5.10;;;4.60;;
14078;SDS011;7115;50.150;8.568;2022-07-29T23:37:34;4.80;;;4.40;;
14078;SDS011;7115;50.150;8.568;2022-07-29T23:40:02;4.97;;;4.47;;
14078;SDS011;7115;50.150;8.568;2022-07-29T23:42:29;4.57;;;4.10;;
14078;SDS011;7115;50.150;8.568;2022-07-29T23:44:56;5.17;;;4.17;;
14078;SDS011;7115;50.150;8.568;2022-07-29T23:47:23;5.10;;;4.60;;
14078;SDS011;7115;50.150;8.568;2022-07-29T23:49:49;6.03;;;4.40;;
14078;SDS011;7115;50.150;8.568;2022-07-29T23:52:16;4.40;;;3.93;;
14078;SDS011;7115;50.150;8.568;2022-07-29T23:54:43;4.83;;;4.27;;
14078;SDS011;7115;50.150;8.568;2022-07-29T23:57:10;5.10;;;4.17;;
14078;SDS011;7115;50.150;8.568;2022-07-29T23:59:37;5.53;;;4.23;;
